sensor_id;sensor_type;location;lat;lon;timestamp;temperature;humidity
52799;DHT22;38667;42.872;74.622;2024-03-06T00:00:20;1.10;66.80
52799;DHT22;38667;42.872;74.622;2024-03-06T00:02:47;1.10;67.10
52799;DHT22;38667;42.872;74.622;2024-03-06T00:05:13;1.20;67.10
52799;DHT22;38667;42.872;74.622;2024-03-06T00:07:39;1.20;66.90
52799;DHT22;38667;42.872;74.622;2024-03-06T00:10:06;1.30;66.70
52799;DHT22;38667;42.872;74.622;2024-03-06T00:12:33;1.30;66.50
52799;DHT22;38667;42.872;74.622;2024-03-06T00:14:59;1.30;66.80
52799;DHT22;38667;42.872;74.622;2024-03-06T00:17:27;1.30;66.70
52799;DHT22;38667;42.872;74.622;2024-03-06T00:19:53;1.30;66.50
52799;DHT22;38667;42.872;74.622;2024-03-06T00:22:20;1.30;66.50
52799;DHT22;38667;42.872;74.622;2024-03-06T00:24:46;1.30;66.70
52799;DHT22;38667;42.872;74.622;2024-03-06T00:27:14;1.40;66.60
52799;DHT22;38667;42.872;74.622;2024-03-06T00:29:40;1.30;67.20
52799;DHT22;38667;42.872;74.622;2024-03-06T00:32:07;1.20;68.20
52799;DHT22;38667;42.872;74.622;2024-03-06T00:34:34;1.10;68.50
52799;DHT22;38667;42.872;74.622;2024-03-06T00:37:01;1.30;68.00
52799;DHT22;38667;42.872;74.622;2024-03-06T00:39:27;1.30;67.60
52799;DHT22;38667;42.872;74.622;2024-03-06T00:41:54;1.30;67.30
52799;DHT22;38667;42.872;74.622;2024-03-06T00:44:20;1.30;67.10
52799;DHT22;38667;42.872;74.622;2024-03-06T00:46:46;1.20;67.80
52799;DHT22;38667;42.872;74.622;2024-03-06T00:49:13;1.20;68.00
52799;DHT22;38667;42.872;74.622;2024-03-06T00:51:41;1.30;67.50
52799;DHT22;38667;42.872;74.622;2024-03-06T00:54:07;1.30;67.40
52799;DHT22;38667;42.872;74.622;2024-03-06T00:56:37;1.20;67.10
52799;DHT22;38667;42.872;74.622;2024-03-06T00:59:04;1.20;67.00
52799;DHT22;38667;42.872;74.622;2024-03-06T01:01:30;1.20;67.10
52799;DHT22;38667;42.872;74.622;2024-03-06T01:03:56;1.10;67.80
52799;DHT22;38667;42.872;74.622;2024-03-06T01:06:23;1.00;68.50
52799;DHT22;38667;42.872;74.622;2024-03-06T01:08:51;0.90;69.00
52799;DHT22;38667;42.872;74.622;2024-03-06T01:11:17;0.80;69.50
52799;DHT22;38667;42.872;74.622;2024-03-06T01:13:43;0.60;70.30
52799;DHT22;38667;42.872;74.622;2024-03-06T01:16:10;0.50;71.40
52799;DHT22;38667;42.872;74.622;2024-03-06T01:18:36;0.50;71.60
52799;DHT22;38667;42.872;74.622;2024-03-06T01:21:03;0.50;71.80
52799;DHT22;38667;42.872;74.622;2024-03-06T01:23:29;0.30;72.10
52799;DHT22;38667;42.872;74.622;2024-03-06T01:25:57;0.30;72.30
52799;DHT22;38667;42.872;74.622;2024-03-06T01:28:23;0.30;72.30
52799;DHT22;38667;42.872;74.622;2024-03-06T01:30:50;0.20;72.30
52799;DHT22;38667;42.872;74.622;2024-03-06T01:33:16;0.20;72.60
52799;DHT22;38667;42.872;74.622;2024-03-06T01:35:42;0.20;72.80
52799;DHT22;38667;42.872;74.622;2024-03-06T01:38:09;0.20;73.00
52799;DHT22;38667;42.872;74.622;2024-03-06T01:40:35;0.20;73.30
52799;DHT22;38667;42.872;74.622;2024-03-06T01:43:03;0.20;73.00
52799;DHT22;38667;42.872;74.622;2024-03-06T01:45:30;0.20;72.80
52799;DHT22;38667;42.872;74.622;2024-03-06T01:47:56;0.20;72.90
52799;DHT22;38667;42.872;74.622;2024-03-06T01:50:22;0.20;73.10
52799;DHT22;38667;42.872;74.622;2024-03-06T01:52:51;0.20;73.40
52799;DHT22;38667;42.872;74.622;2024-03-06T01:55:18;0.30;73.60
52799;DHT22;38667;42.872;74.622;2024-03-06T01:57:44;0.30;73.70
52799;DHT22;38667;42.872;74.622;2024-03-06T02:00:13;0.30;73.40
52799;DHT22;38667;42.872;74.622;2024-03-06T02:02:41;0.30;73.50
52799;DHT22;38667;42.872;74.622;2024-03-06T02:05:08;0.40;73.70
52799;DHT22;38667;42.872;74.622;2024-03-06T02:07:35;0.40;73.70
52799;DHT22;38667;42.872;74.622;2024-03-06T02:10:02;0.40;73.40
52799;DHT22;38667;42.872;74.622;2024-03-06T02:12:29;0.50;73.90
52799;DHT22;38667;42.872;74.622;2024-03-06T02:14:55;0.60;72.60
52799;DHT22;38667;42.872;74.622;2024-03-06T02:17:23;0.60;70.70
52799;DHT22;38667;42.872;74.622;2024-03-06T02:19:49;0.60;69.60
52799;DHT22;38667;42.872;74.622;2024-03-06T02:22:17;0.70;68.40
52799;DHT22;38667;42.872;74.622;2024-03-06T02:24:47;0.70;66.80
52799;DHT22;38667;42.872;74.622;2024-03-06T02:27:14;0.80;64.00
52799;DHT22;38667;42.872;74.622;2024-03-06T02:29:40;0.80;63.10
52799;DHT22;38667;42.872;74.622;2024-03-06T02:32:07;0.80;63.10
52799;DHT22;38667;42.872;74.622;2024-03-06T02:34:33;0.80;63.30
52799;DHT22;38667;42.872;74.622;2024-03-06T02:37:00;0.80;62.80
52799;DHT22;38667;42.872;74.622;2024-03-06T02:39:27;0.90;63.20
52799;DHT22;38667;42.872;74.622;2024-03-06T02:41:54;0.90;63.60
52799;DHT22;38667;42.872;74.622;2024-03-06T02:44:20;1.00;63.90
52799;DHT22;38667;42.872;74.622;2024-03-06T02:46:48;1.10;64.50
52799;DHT22;38667;42.872;74.622;2024-03-06T02:49:14;1.00;65.10
52799;DHT22;38667;42.872;74.622;2024-03-06T02:51:41;1.10;65.40
52799;DHT22;38667;42.872;74.622;2024-03-06T02:54:07;1.20;65.80
52799;DHT22;38667;42.872;74.622;2024-03-06T02:56:35;1.30;65.60
52799;DHT22;38667;42.872;74.622;2024-03-06T02:59:01;1.30;66.10
52799;DHT22;38667;42.872;74.622;2024-03-06T03:01:28;1.40;66.50
52799;DHT22;38667;42.872;74.622;2024-03-06T03:03:54;1.50;66.60
52799;DHT22;38667;42.872;74.622;2024-03-06T03:06:20;1.50;66.90
52799;DHT22;38667;42.872;74.622;2024-03-06T03:08:47;1.60;67.30
52799;DHT22;38667;42.872;74.622;2024-03-06T03:11:15;1.70;67.70
52799;DHT22;38667;42.872;74.622;2024-03-06T03:13:43;1.70;68.20
52799;DHT22;38667;42.872;74.622;2024-03-06T03:16:16;1.80;68.10
52799;DHT22;38667;42.872;74.622;2024-03-06T03:18:42;1.90;68.50
52799;DHT22;38667;42.872;74.622;2024-03-06T03:21:09;1.90;68.60
52799;DHT22;38667;42.872;74.622;2024-03-06T03:23:36;2.00;69.00
52799;DHT22;38667;42.872;74.622;2024-03-06T03:26:03;2.00;69.20
52799;DHT22;38667;42.872;74.622;2024-03-06T03:28:29;2.00;69.70
52799;DHT22;38667;42.872;74.622;2024-03-06T03:30:57;2.00;69.20
52799;DHT22;38667;42.872;74.622;2024-03-06T03:33:23;2.10;69.30
52799;DHT22;38667;42.872;74.622;2024-03-06T03:35:50;2.20;69.10
52799;DHT22;38667;42.872;74.622;2024-03-06T03:38:16;2.30;69.50
52799;DHT22;38667;42.872;74.622;2024-03-06T03:40:42;2.40;69.40
52799;DHT22;38667;42.872;74.622;2024-03-06T03:43:09;2.50;68.70
52799;DHT22;38667;42.872;74.622;2024-03-06T03:45:35;2.60;68.50
52799;DHT22;38667;42.872;74.622;2024-03-06T03:48:04;2.70;68.10
52799;DHT22;38667;42.872;74.622;2024-03-06T03:50:30;2.80;67.80
52799;DHT22;38667;42.872;74.622;2024-03-06T03:52:58;2.90;67.20
52799;DHT22;38667;42.872;74.622;2024-03-06T03:55:24;3.00;66.80
52799;DHT22;38667;42.872;74.622;2024-03-06T03:57:51;3.20;66.30
52799;DHT22;38667;42.872;74.622;2024-03-06T04:00:18;3.30;65.60
52799;DHT22;38667;42.872;74.622;2024-03-06T04:02:44;3.50;64.40
52799;DHT22;38667;42.872;74.622;2024-03-06T04:05:12;3.60;63.10
52799;DHT22;38667;42.872;74.622;2024-03-06T04:07:38;3.80;61.80
52799;DHT22;38667;42.872;74.622;2024-03-06T04:10:06;3.90;59.50
52799;DHT22;38667;42.872;74.622;2024-03-06T04:12:32;4.00;58.50
52799;DHT22;38667;42.872;74.622;2024-03-06T04:14:58;4.00;58.30
52799;DHT22;38667;42.872;74.622;2024-03-06T04:17:25;4.00;58.80
52799;DHT22;38667;42.872;74.622;2024-03-06T04:19:51;4.10;57.40
52799;DHT22;38667;42.872;74.622;2024-03-06T04:22:20;4.20;57.80
52799;DHT22;38667;42.872;74.622;2024-03-06T04:24:47;4.30;58.60
52799;DHT22;38667;42.872;74.622;2024-03-06T04:27:13;4.40;58.40
52799;DHT22;38667;42.872;74.622;2024-03-06T04:29:39;4.70;58.80
52799;DHT22;38667;42.872;74.622;2024-03-06T04:32:06;4.70;57.10
52799;DHT22;38667;42.872;74.622;2024-03-06T04:34:32;4.90;57.30
52799;DHT22;38667;42.872;74.622;2024-03-06T04:36:59;4.90;56.50
52799;DHT22;38667;42.872;74.622;2024-03-06T04:39:28;5.10;56.40
52799;DHT22;38667;42.872;74.622;2024-03-06T04:41:54;5.20;56.20
52799;DHT22;38667;42.872;74.622;2024-03-06T04:44:21;5.30;55.80
52799;DHT22;38667;42.872;74.622;2024-03-06T04:46:50;5.30;55.90
52799;DHT22;38667;42.872;74.622;2024-03-06T04:49:16;5.40;55.90
52799;DHT22;38667;42.872;74.622;2024-03-06T04:51:43;5.40;54.90
52799;DHT22;38667;42.872;74.622;2024-03-06T04:54:09;5.50;54.30
52799;DHT22;38667;42.872;74.622;2024-03-06T04:56:37;5.60;55.00
52799;DHT22;38667;42.872;74.622;2024-03-06T04:59:03;5.80;54.20
52799;DHT22;38667;42.872;74.622;2024-03-06T05:01:30;5.80;54.10
52799;DHT22;38667;42.872;74.622;2024-03-06T05:03:57;5.90;54.10
52799;DHT22;38667;42.872;74.622;2024-03-06T05:06:23;6.10;55.10
52799;DHT22;38667;42.872;74.622;2024-03-06T05:08:49;6.30;54.10
52799;DHT22;38667;42.872;74.622;2024-03-06T05:11:16;6.40;51.60
52799;DHT22;38667;42.872;74.622;2024-03-06T05:13:43;6.50;51.60
52799;DHT22;38667;42.872;74.622;2024-03-06T05:16:10;6.60;51.60
52799;DHT22;38667;42.872;74.622;2024-03-06T05:18:36;6.60;47.40
52799;DHT22;38667;42.872;74.622;2024-03-06T05:21:03;6.70;45.70
52799;DHT22;38667;42.872;74.622;2024-03-06T05:23:29;6.70;46.50
52799;DHT22;38667;42.872;74.622;2024-03-06T05:25:56;6.60;46.20
52799;DHT22;38667;42.872;74.622;2024-03-06T05:28:22;6.70;45.50
52799;DHT22;38667;42.872;74.622;2024-03-06T05:30:50;6.90;48.10
52799;DHT22;38667;42.872;74.622;2024-03-06T05:33:16;7.00;45.80
52799;DHT22;38667;42.872;74.622;2024-03-06T05:35:42;7.10;46.50
52799;DHT22;38667;42.872;74.622;2024-03-06T05:38:09;7.20;44.00
52799;DHT22;38667;42.872;74.622;2024-03-06T05:40:35;7.30;45.00
52799;DHT22;38667;42.872;74.622;2024-03-06T05:43:01;7.40;44.80
52799;DHT22;38667;42.872;74.622;2024-03-06T05:45:28;7.60;44.40
52799;DHT22;38667;42.872;74.622;2024-03-06T05:47:56;7.80;45.00
52799;DHT22;38667;42.872;74.622;2024-03-06T05:50:22;7.80;44.00
52799;DHT22;38667;42.872;74.622;2024-03-06T05:52:48;7.80;45.90
52799;DHT22;38667;42.872;74.622;2024-03-06T05:55:15;7.90;44.80
52799;DHT22;38667;42.872;74.622;2024-03-06T05:57:41;7.90;44.30
52799;DHT22;38667;42.872;74.622;2024-03-06T06:00:09;7.90;43.90
52799;DHT22;38667;42.872;74.622;2024-03-06T06:02:35;8.00;42.90
52799;DHT22;38667;42.872;74.622;2024-03-06T06:05:03;8.10;44.90
52799;DHT22;38667;42.872;74.622;2024-03-06T06:07:30;8.30;42.90
52799;DHT22;38667;42.872;74.622;2024-03-06T06:09:56;8.30;43.60
52799;DHT22;38667;42.872;74.622;2024-03-06T06:12:23;8.60;43.60
52799;DHT22;38667;42.872;74.622;2024-03-06T06:14:49;9.20;42.50
52799;DHT22;38667;42.872;74.622;2024-03-06T06:17:15;9.90;41.90
52799;DHT22;38667;42.872;74.622;2024-03-06T06:19:42;10.80;38.50
52799;DHT22;38667;42.872;74.622;2024-03-06T06:22:10;11.50;36.30
52799;DHT22;38667;42.872;74.622;2024-03-06T06:24:36;11.90;36.50
52799;DHT22;38667;42.872;74.622;2024-03-06T06:27:03;12.10;35.50
52799;DHT22;38667;42.872;74.622;2024-03-06T06:29:29;11.90;36.70
52799;DHT22;38667;42.872;74.622;2024-03-06T06:31:56;11.60;35.60
52799;DHT22;38667;42.872;74.622;2024-03-06T06:34:22;11.10;36.20
52799;DHT22;38667;42.872;74.622;2024-03-06T06:36:48;10.90;36.20
52799;DHT22;38667;42.872;74.622;2024-03-06T06:39:16;11.00;36.10
52799;DHT22;38667;42.872;74.622;2024-03-06T06:41:42;11.30;37.60
52799;DHT22;38667;42.872;74.622;2024-03-06T06:44:09;11.70;36.00
52799;DHT22;38667;42.872;74.622;2024-03-06T06:46:35;12.10;36.30
52799;DHT22;38667;42.872;74.622;2024-03-06T06:49:01;12.10;36.30
52799;DHT22;38667;42.872;74.622;2024-03-06T06:51:28;12.00;33.50
52799;DHT22;38667;42.872;74.622;2024-03-06T06:53:54;12.00;34.30
52799;DHT22;38667;42.872;74.622;2024-03-06T06:56:22;12.50;35.00
52799;DHT22;38667;42.872;74.622;2024-03-06T06:58:48;12.50;33.90
52799;DHT22;38667;42.872;74.622;2024-03-06T07:01:15;12.30;34.50
52799;DHT22;38667;42.872;74.622;2024-03-06T07:03:41;12.30;34.40
52799;DHT22;38667;42.872;74.622;2024-03-06T07:06:07;12.30;32.90
52799;DHT22;38667;42.872;74.622;2024-03-06T07:08:34;12.70;34.70
52799;DHT22;38667;42.872;74.622;2024-03-06T07:11:00;13.00;33.20
52799;DHT22;38667;42.872;74.622;2024-03-06T07:13:28;13.20;33.10
52799;DHT22;38667;42.872;74.622;2024-03-06T07:15:54;13.10;34.30
52799;DHT22;38667;42.872;74.622;2024-03-06T07:18:21;13.00;32.80
52799;DHT22;38667;42.872;74.622;2024-03-06T07:20:47;13.20;32.20
52799;DHT22;38667;42.872;74.622;2024-03-06T07:23:14;13.50;31.80
52799;DHT22;38667;42.872;74.622;2024-03-06T07:25:40;13.90;32.40
52799;DHT22;38667;42.872;74.622;2024-03-06T07:28:06;14.20;30.30
52799;DHT22;38667;42.872;74.622;2024-03-06T07:30:34;14.10;30.10
52799;DHT22;38667;42.872;74.622;2024-03-06T07:33:00;13.70;30.90
52799;DHT22;38667;42.872;74.622;2024-03-06T07:35:27;13.60;33.00
52799;DHT22;38667;42.872;74.622;2024-03-06T07:37:53;13.50;31.40
52799;DHT22;38667;42.872;74.622;2024-03-06T07:40:19;13.70;31.60
52799;DHT22;38667;42.872;74.622;2024-03-06T07:42:46;13.80;31.20
52799;DHT22;38667;42.872;74.622;2024-03-06T07:45:12;13.70;31.20
52799;DHT22;38667;42.872;74.622;2024-03-06T07:47:41;14.00;30.90
52799;DHT22;38667;42.872;74.622;2024-03-06T07:50:08;14.60;30.60
52799;DHT22;38667;42.872;74.622;2024-03-06T07:52:34;15.20;31.80
52799;DHT22;38667;42.872;74.622;2024-03-06T07:55:01;15.20;31.20
52799;DHT22;38667;42.872;74.622;2024-03-06T07:57:27;15.10;32.10
52799;DHT22;38667;42.872;74.622;2024-03-06T07:59:53;15.20;32.20
52799;DHT22;38667;42.872;74.622;2024-03-06T08:02:20;15.40;30.90
52799;DHT22;38667;42.872;74.622;2024-03-06T08:04:48;15.20;31.40
52799;DHT22;38667;42.872;74.622;2024-03-06T08:07:14;15.00;32.60
52799;DHT22;38667;42.872;74.622;2024-03-06T08:09:40;14.80;32.90
52799;DHT22;38667;42.872;74.622;2024-03-06T08:12:07;15.00;32.60
52799;DHT22;38667;42.872;74.622;2024-03-06T08:14:34;14.90;32.90
52799;DHT22;38667;42.872;74.622;2024-03-06T08:17:00;15.10;32.70
52799;DHT22;38667;42.872;74.622;2024-03-06T08:19:26;15.20;32.40
52799;DHT22;38667;42.872;74.622;2024-03-06T08:21:54;15.20;31.90
52799;DHT22;38667;42.872;74.622;2024-03-06T08:24:21;15.20;30.90
52799;DHT22;38667;42.872;74.622;2024-03-06T08:26:47;14.90;33.00
52799;DHT22;38667;42.872;74.622;2024-03-06T08:29:13;14.90;32.70
52799;DHT22;38667;42.872;74.622;2024-03-06T08:31:40;15.00;33.90
52799;DHT22;38667;42.872;74.622;2024-03-06T08:34:06;15.00;33.60
52799;DHT22;38667;42.872;74.622;2024-03-06T08:36:32;14.70;33.70
52799;DHT22;38667;42.872;74.622;2024-03-06T08:39:00;14.60;33.80
52799;DHT22;38667;42.872;74.622;2024-03-06T08:41:27;14.60;33.90
52799;DHT22;38667;42.872;74.622;2024-03-06T08:43:53;14.70;34.10
52799;DHT22;38667;42.872;74.622;2024-03-06T08:46:19;14.70;34.30
52799;DHT22;38667;42.872;74.622;2024-03-06T08:48:46;14.40;33.10
52799;DHT22;38667;42.872;74.622;2024-03-06T08:51:12;13.90;34.40
52799;DHT22;38667;42.872;74.622;2024-03-06T08:53:38;13.60;34.90
52799;DHT22;38667;42.872;74.622;2024-03-06T08:56:07;13.30;35.30
52799;DHT22;38667;42.872;74.622;2024-03-06T08:58:33;13.20;36.80
52799;DHT22;38667;42.872;74.622;2024-03-06T09:01:00;13.20;35.20
52799;DHT22;38667;42.872;74.622;2024-03-06T09:03:26;13.50;34.90
52799;DHT22;38667;42.872;74.622;2024-03-06T09:05:52;13.90;35.70
52799;DHT22;38667;42.872;74.622;2024-03-06T09:08:19;14.10;34.50
52799;DHT22;38667;42.872;74.622;2024-03-06T09:10:45;14.20;33.60
52799;DHT22;38667;42.872;74.622;2024-03-06T09:13:13;14.20;33.70
52799;DHT22;38667;42.872;74.622;2024-03-06T09:15:39;14.10;32.70
52799;DHT22;38667;42.872;74.622;2024-03-06T09:18:06;13.90;34.40
52799;DHT22;38667;42.872;74.622;2024-03-06T09:20:32;13.70;33.70
52799;DHT22;38667;42.872;74.622;2024-03-06T09:22:59;13.50;33.90
52799;DHT22;38667;42.872;74.622;2024-03-06T09:25:25;13.30;34.60
52799;DHT22;38667;42.872;74.622;2024-03-06T09:27:51;13.60;34.90
52799;DHT22;38667;42.872;74.622;2024-03-06T09:30:19;14.00;33.70
52799;DHT22;38667;42.872;74.622;2024-03-06T09:32:46;14.00;33.50
52799;DHT22;38667;42.872;74.622;2024-03-06T09:35:12;14.00;34.40
52799;DHT22;38667;42.872;74.622;2024-03-06T09:37:38;14.00;34.50
52799;DHT22;38667;42.872;74.622;2024-03-06T09:40:06;13.70;36.30
52799;DHT22;38667;42.872;74.622;2024-03-06T09:42:33;13.50;36.20
52799;DHT22;38667;42.872;74.622;2024-03-06T09:45:00;13.50;36.70
52799;DHT22;38667;42.872;74.622;2024-03-06T09:47:32;13.40;36.30
52799;DHT22;38667;42.872;74.622;2024-03-06T09:49:59;13.50;36.10
52799;DHT22;38667;42.872;74.622;2024-03-06T09:52:25;13.30;37.80
52799;DHT22;38667;42.872;74.622;2024-03-06T09:54:54;13.10;38.40
52799;DHT22;38667;42.872;74.622;2024-03-06T09:57:20;13.00;38.80
52799;DHT22;38667;42.872;74.622;2024-03-06T09:59:47;13.00;38.70
52799;DHT22;38667;42.872;74.622;2024-03-06T10:02:28;13.00;38.50
52799;DHT22;38667;42.872;74.622;2024-03-06T10:04:56;12.90;40.40
52799;DHT22;38667;42.872;74.622;2024-03-06T10:07:23;12.90;38.30
52799;DHT22;38667;42.872;74.622;2024-03-06T10:09:49;12.90;38.30
52799;DHT22;38667;42.872;74.622;2024-03-06T10:12:17;13.00;38.60
52799;DHT22;38667;42.872;74.622;2024-03-06T10:14:49;12.90;38.10
52799;DHT22;38667;42.872;74.622;2024-03-06T10:17:19;12.80;39.70
52799;DHT22;38667;42.872;74.622;2024-03-06T10:19:47;12.70;39.20
52799;DHT22;38667;42.872;74.622;2024-03-06T10:22:13;12.60;38.70
52799;DHT22;38667;42.872;74.622;2024-03-06T10:24:41;12.30;40.50
52799;DHT22;38667;42.872;74.622;2024-03-06T10:27:07;12.00;39.20
52799;DHT22;38667;42.872;74.622;2024-03-06T10:29:33;11.90;40.30
52799;DHT22;38667;42.872;74.622;2024-03-06T10:32:00;11.80;39.80
52799;DHT22;38667;42.872;74.622;2024-03-06T10:34:28;11.80;39.20
52799;DHT22;38667;42.872;74.622;2024-03-06T10:36:56;11.70;39.70
52799;DHT22;38667;42.872;74.622;2024-03-06T10:39:23;11.70;37.90
52799;DHT22;38667;42.872;74.622;2024-03-06T10:41:53;11.60;35.90
52799;DHT22;38667;42.872;74.622;2024-03-06T10:44:22;11.40;34.80
52799;DHT22;38667;42.872;74.622;2024-03-06T10:46:54;11.40;34.60
52799;DHT22;38667;42.872;74.622;2024-03-06T10:49:22;11.20;35.70
52799;DHT22;38667;42.872;74.622;2024-03-06T10:51:48;11.30;35.30
52799;DHT22;38667;42.872;74.622;2024-03-06T10:54:17;11.30;34.70
52799;DHT22;38667;42.872;74.622;2024-03-06T10:56:45;11.20;34.20
52799;DHT22;38667;42.872;74.622;2024-03-06T10:59:12;11.10;35.50
52799;DHT22;38667;42.872;74.622;2024-03-06T11:01:40;10.90;35.60
52799;DHT22;38667;42.872;74.622;2024-03-06T11:04:06;10.90;35.90
52799;DHT22;38667;42.872;74.622;2024-03-06T11:06:33;10.90;36.30
52799;DHT22;38667;42.872;74.622;2024-03-06T11:09:00;10.70;36.50
52799;DHT22;38667;42.872;74.622;2024-03-06T11:11:27;10.60;37.80
52799;DHT22;38667;42.872;74.622;2024-03-06T11:14:01;10.50;37.80
52799;DHT22;38667;42.872;74.622;2024-03-06T11:16:30;10.50;39.10
52799;DHT22;38667;42.872;74.622;2024-03-06T11:19:07;10.50;39.60
52799;DHT22;38667;42.872;74.622;2024-03-06T11:21:34;10.60;38.50
52799;DHT22;38667;42.872;74.622;2024-03-06T11:24:17;10.60;39.40
52799;DHT22;38667;42.872;74.622;2024-03-06T11:26:46;10.60;40.90
52799;DHT22;38667;42.872;74.622;2024-03-06T11:29:15;10.50;41.50
52799;DHT22;38667;42.872;74.622;2024-03-06T11:32:03;10.40;42.60
52799;DHT22;38667;42.872;74.622;2024-03-06T11:34:29;10.20;42.60
52799;DHT22;38667;42.872;74.622;2024-03-06T11:36:57;10.20;43.30
52799;DHT22;38667;42.872;74.622;2024-03-06T11:39:23;10.20;43.70
52799;DHT22;38667;42.872;74.622;2024-03-06T11:41:51;10.10;43.80
52799;DHT22;38667;42.872;74.622;2024-03-06T11:44:18;9.90;44.80
52799;DHT22;38667;42.872;74.622;2024-03-06T11:46:46;9.70;45.30
52799;DHT22;38667;42.872;74.622;2024-03-06T11:49:16;9.70;45.50
52799;DHT22;38667;42.872;74.622;2024-03-06T11:51:42;9.70;45.50
52799;DHT22;38667;42.872;74.622;2024-03-06T11:54:10;9.60;46.10
52799;DHT22;38667;42.872;74.622;2024-03-06T11:56:38;9.50;46.10
52799;DHT22;38667;42.872;74.622;2024-03-06T11:59:06;9.50;46.60
52799;DHT22;38667;42.872;74.622;2024-03-06T12:01:33;9.30;47.30
52799;DHT22;38667;42.872;74.622;2024-03-06T12:04:00;9.30;46.90
52799;DHT22;38667;42.872;74.622;2024-03-06T12:06:27;9.30;47.40
52799;DHT22;38667;42.872;74.622;2024-03-06T12:08:54;9.30;47.20
52799;DHT22;38667;42.872;74.622;2024-03-06T12:11:20;9.30;46.90
52799;DHT22;38667;42.872;74.622;2024-03-06T12:13:47;9.20;48.10
52799;DHT22;38667;42.872;74.622;2024-03-06T12:16:15;9.10;48.60
52799;DHT22;38667;42.872;74.622;2024-03-06T12:18:42;9.00;48.50
52799;DHT22;38667;42.872;74.622;2024-03-06T12:21:10;9.00;48.40
52799;DHT22;38667;42.872;74.622;2024-03-06T12:23:36;9.00;48.30
52799;DHT22;38667;42.872;74.622;2024-03-06T12:26:04;8.90;48.80
52799;DHT22;38667;42.872;74.622;2024-03-06T12:28:30;8.80;47.90
52799;DHT22;38667;42.872;74.622;2024-03-06T12:30:57;8.80;48.20
52799;DHT22;38667;42.872;74.622;2024-03-06T12:33:25;8.80;48.50
52799;DHT22;38667;42.872;74.622;2024-03-06T12:36:03;8.70;49.20
52799;DHT22;38667;42.872;74.622;2024-03-06T12:38:30;8.70;49.10
52799;DHT22;38667;42.872;74.622;2024-03-06T12:40:57;8.60;48.90
52799;DHT22;38667;42.872;74.622;2024-03-06T12:43:23;8.60;48.70
52799;DHT22;38667;42.872;74.622;2024-03-06T12:45:50;8.60;48.70
52799;DHT22;38667;42.872;74.622;2024-03-06T12:48:16;8.50;48.80
52799;DHT22;38667;42.872;74.622;2024-03-06T12:50:44;8.40;49.20
52799;DHT22;38667;42.872;74.622;2024-03-06T12:53:10;8.40;50.60
52799;DHT22;38667;42.872;74.622;2024-03-06T12:55:37;8.40;51.10
52799;DHT22;38667;42.872;74.622;2024-03-06T12:58:04;8.30;51.20
52799;DHT22;38667;42.872;74.622;2024-03-06T13:00:30;8.30;51.70
52799;DHT22;38667;42.872;74.622;2024-03-06T13:02:56;8.30;52.40
52799;DHT22;38667;42.872;74.622;2024-03-06T13:05:24;8.10;52.50
52799;DHT22;38667;42.872;74.622;2024-03-06T13:07:52;8.10;52.80
52799;DHT22;38667;42.872;74.622;2024-03-06T13:10:18;8.10;53.60
52799;DHT22;38667;42.872;74.622;2024-03-06T13:12:44;8.00;54.10
52799;DHT22;38667;42.872;74.622;2024-03-06T13:15:12;8.10;54.80
52799;DHT22;38667;42.872;74.622;2024-03-06T13:17:38;8.00;54.30
52799;DHT22;38667;42.872;74.622;2024-03-06T13:20:05;7.90;54.90
52799;DHT22;38667;42.872;74.622;2024-03-06T13:22:32;7.90;55.60
52799;DHT22;38667;42.872;74.622;2024-03-06T13:25:00;7.90;55.80
52799;DHT22;38667;42.872;74.622;2024-03-06T13:27:26;7.80;56.30
52799;DHT22;38667;42.872;74.622;2024-03-06T13:29:53;7.70;57.00
52799;DHT22;38667;42.872;74.622;2024-03-06T13:32:19;7.70;57.30
52799;DHT22;38667;42.872;74.622;2024-03-06T13:34:46;7.50;57.70
52799;DHT22;38667;42.872;74.622;2024-03-06T13:37:12;7.50;57.90
52799;DHT22;38667;42.872;74.622;2024-03-06T13:39:38;7.40;58.60
52799;DHT22;38667;42.872;74.622;2024-03-06T13:42:07;7.30;58.80
52799;DHT22;38667;42.872;74.622;2024-03-06T13:44:33;7.30;59.20
52799;DHT22;38667;42.872;74.622;2024-03-06T13:46:59;7.20;59.40
52799;DHT22;38667;42.872;74.622;2024-03-06T13:49:37;7.20;59.60
52799;DHT22;38667;42.872;74.622;2024-03-06T13:52:04;7.10;59.60
52799;DHT22;38667;42.872;74.622;2024-03-06T13:54:30;7.10;60.20
52799;DHT22;38667;42.872;74.622;2024-03-06T13:56:57;7.00;60.60
52799;DHT22;38667;42.872;74.622;2024-03-06T13:59:24;7.00;60.80
52799;DHT22;38667;42.872;74.622;2024-03-06T14:01:51;6.90;59.90
52799;DHT22;38667;42.872;74.622;2024-03-06T14:04:17;6.90;59.40
52799;DHT22;38667;42.872;74.622;2024-03-06T14:06:44;6.80;59.60
52799;DHT22;38667;42.872;74.622;2024-03-06T14:09:10;6.70;59.80
52799;DHT22;38667;42.872;74.622;2024-03-06T14:11:36;6.70;59.50
52799;DHT22;38667;42.872;74.622;2024-03-06T14:14:03;6.70;59.90
52799;DHT22;38667;42.872;74.622;2024-03-06T14:16:31;6.60;60.50
52799;DHT22;38667;42.872;74.622;2024-03-06T14:18:57;6.50;59.40
52799;DHT22;38667;42.872;74.622;2024-03-06T14:21:23;6.50;58.60
52799;DHT22;38667;42.872;74.622;2024-03-06T14:23:50;6.40;58.10
52799;DHT22;38667;42.872;74.622;2024-03-06T14:26:16;6.40;57.50
52799;DHT22;38667;42.872;74.622;2024-03-06T14:28:43;6.30;57.30
52799;DHT22;38667;42.872;74.622;2024-03-06T14:31:09;6.20;57.10
52799;DHT22;38667;42.872;74.622;2024-03-06T14:33:38;6.20;57.30
52799;DHT22;38667;42.872;74.622;2024-03-06T14:36:06;6.20;57.60
52799;DHT22;38667;42.872;74.622;2024-03-06T14:38:32;6.20;57.60
52799;DHT22;38667;42.872;74.622;2024-03-06T14:40:59;6.20;57.80
52799;DHT22;38667;42.872;74.622;2024-03-06T14:43:25;6.10;58.10
52799;DHT22;38667;42.872;74.622;2024-03-06T14:45:52;6.10;58.80
52799;DHT22;38667;42.872;74.622;2024-03-06T14:48:18;6.00;58.90
52799;DHT22;38667;42.872;74.622;2024-03-06T14:50:46;6.00;58.20
52799;DHT22;38667;42.872;74.622;2024-03-06T14:53:12;5.90;58.00
52799;DHT22;38667;42.872;74.622;2024-03-06T14:55:39;5.90;57.60
52799;DHT22;38667;42.872;74.622;2024-03-06T14:58:05;5.90;57.90
52799;DHT22;38667;42.872;74.622;2024-03-06T15:00:31;5.90;57.20
52799;DHT22;38667;42.872;74.622;2024-03-06T15:02:58;5.90;57.20
52799;DHT22;38667;42.872;74.622;2024-03-06T15:05:24;5.80;57.40
52799;DHT22;38667;42.872;74.622;2024-03-06T15:07:52;5.80;57.40
52799;DHT22;38667;42.872;74.622;2024-03-06T15:10:19;5.80;57.40
52799;DHT22;38667;42.872;74.622;2024-03-06T15:12:45;5.80;57.30
52799;DHT22;38667;42.872;74.622;2024-03-06T15:15:12;5.60;58.00
52799;DHT22;38667;42.872;74.622;2024-03-06T15:17:39;5.60;58.40
52799;DHT22;38667;42.872;74.622;2024-03-06T15:20:07;5.60;58.70
52799;DHT22;38667;42.872;74.622;2024-03-06T15:22:33;5.60;58.90